createdAt,value
2023-06-30T00:02:03.517Z,87.22
2023-06-30T00:04:35.060Z,87.17
2023-06-30T00:07:05.573Z,86.99
2023-06-30T00:09:39.267Z,87.15
2023-06-30T00:12:09.455Z,87.41
2023-06-30T00:14:39.462Z,86.94
2023-06-30T00:17:09.475Z,86.78
2023-06-30T00:19:39.722Z,85.99
2023-06-30T00:22:11.010Z,86.70
2023-06-30T00:24:40.903Z,87.13
2023-06-30T00:27:10.843Z,87.63
2023-06-30T00:29:41.253Z,87.10
2023-06-30T00:32:11.243Z,87.35
2023-06-30T00:34:41.118Z,87.12
2023-06-30T00:37:11.100Z,87.00
2023-06-30T00:39:41.520Z,87.20
2023-06-30T00:42:12.557Z,87.17
2023-06-30T00:44:54.331Z,87.04
2023-06-30T00:47:24.959Z,87.33
2023-06-30T00:49:56.125Z,86.90
2023-06-30T00:52:27.109Z,87.67
2023-06-30T00:54:57.708Z,87.21
2023-06-30T00:57:28.222Z,86.55
2023-06-30T01:00:09.869Z,86.17
2023-06-30T01:02:52.710Z,85.08
2023-06-30T01:05:35.446Z,84.83
2023-06-30T01:08:18.521Z,83.69
2023-06-30T01:10:49.541Z,83.92
2023-06-30T01:13:23.981Z,83.29
2023-06-30T01:15:55.619Z,83.25
2023-06-30T01:18:25.932Z,83.25
2023-06-30T01:20:57.979Z,83.61
2023-06-30T01:23:43.590Z,83.91
2023-06-30T01:26:14.335Z,83.54
2023-06-30T01:28:45.756Z,83.07
2023-06-30T01:31:16.350Z,82.18
2023-06-30T01:33:46.691Z,82.29
2023-06-30T01:36:17.107Z,81.97
2023-06-30T01:38:47.344Z,81.56
2023-06-30T01:41:18.429Z,81.46
2023-06-30T01:43:48.374Z,81.23
2023-06-30T01:46:18.856Z,81.25
2023-06-30T01:48:49.252Z,80.84
2023-06-30T01:51:20.157Z,80.89
2023-06-30T01:53:50.474Z,81.31
2023-06-30T01:56:20.811Z,81.08
2023-06-30T01:58:53.478Z,81.28
2023-06-30T02:01:23.495Z,80.58
2023-06-30T02:03:54.330Z,80.18
2023-06-30T02:06:24.404Z,80.70
2023-06-30T02:08:54.425Z,80.49
2023-06-30T02:11:26.992Z,80.17
2023-06-30T02:13:57.028Z,80.10
2023-06-30T02:16:27.094Z,79.71
2023-06-30T02:18:57.818Z,78.60
2023-06-30T02:21:28.473Z,79.02
2023-06-30T02:23:59.009Z,78.94
2023-06-30T02:26:29.711Z,78.92
2023-06-30T02:29:01.756Z,79.39
2023-06-30T02:31:31.798Z,78.97
2023-06-30T02:34:05.300Z,79.28
2023-06-30T02:36:35.549Z,78.39
2023-06-30T02:39:08.128Z,78.17
2023-06-30T02:41:39.069Z,78.67
2023-06-30T02:44:10.540Z,77.80
2023-06-30T02:46:41.376Z,77.16
2023-06-30T02:49:11.936Z,76.83
2023-06-30T02:51:42.859Z,75.84
2023-06-30T02:54:13.528Z,76.18
2023-06-30T02:56:46.719Z,76.47
2023-06-30T02:59:17.595Z,76.86
2023-06-30T03:01:48.457Z,76.72
2023-06-30T03:04:19.466Z,76.84
2023-06-30T03:06:49.968Z,76.93
2023-06-30T03:09:20.846Z,76.07
2023-06-30T03:11:51.628Z,75.93
2023-06-30T03:14:24.357Z,75.17
2023-06-30T03:16:54.831Z,74.64
2023-06-30T03:19:28.265Z,75.12
2023-06-30T03:21:58.284Z,74.50
2023-06-30T03:24:28.235Z,75.04
2023-06-30T03:26:58.252Z,73.87
2023-06-30T03:29:30.192Z,73.76
2023-06-30T03:32:00.614Z,72.59
2023-06-30T03:34:33.538Z,72.77
2023-06-30T03:37:03.738Z,72.49
2023-06-30T03:39:34.046Z,72.39
2023-06-30T03:42:04.416Z,72.05
2023-06-30T03:44:34.600Z,72.07
2023-06-30T03:47:05.027Z,71.92
2023-06-30T03:49:35.024Z,72.19
2023-06-30T03:52:08.537Z,71.62
2023-06-30T03:54:40.898Z,71.62
2023-06-30T03:57:11.439Z,72.16
2023-06-30T03:59:41.430Z,71.37
2023-06-30T04:02:11.880Z,71.21
2023-06-30T04:04:42.266Z,70.31
2023-06-30T04:07:12.867Z,69.05
2023-06-30T04:09:47.257Z,69.53
2023-06-30T04:12:17.317Z,68.93
2023-06-30T04:14:47.373Z,68.66
2023-06-30T04:17:17.347Z,67.53
2023-06-30T04:19:47.824Z,66.43
2023-06-30T04:22:17.810Z,66.53
2023-06-30T04:24:47.645Z,66.90
2023-06-30T04:27:17.676Z,65.73
2023-06-30T04:29:47.946Z,65.77
2023-06-30T04:32:18.506Z,66.56
2023-06-30T04:34:48.675Z,67.00
2023-06-30T04:37:18.792Z,67.22
2023-06-30T04:39:49.968Z,65.33
2023-06-30T04:42:20.340Z,64.43
2023-06-30T04:44:52.180Z,64.02
2023-06-30T04:47:28.274Z,64.17
2023-06-30T04:49:58.664Z,64.11
2023-06-30T04:52:28.970Z,64.66
2023-06-30T04:55:00.378Z,64.17
2023-06-30T04:57:31.471Z,64.95
2023-06-30T05:00:01.808Z,63.72
2023-06-30T05:02:32.711Z,63.53
2023-06-30T05:05:02.698Z,63.54
2023-06-30T05:07:32.578Z,63.54
2023-06-30T05:10:02.517Z,63.35
2023-06-30T05:12:33.294Z,62.97
2023-06-30T05:15:04.143Z,63.37
2023-06-30T05:17:34.237Z,63.48
2023-06-30T05:20:07.438Z,64.44
2023-06-30T05:22:37.727Z,64.84
2023-06-30T05:25:08.200Z,63.72
2023-06-30T05:27:38.508Z,63.01
2023-06-30T05:30:09.709Z,63.23
2023-06-30T05:32:39.730Z,64.16
2023-06-30T05:35:12.844Z,62.88
2023-06-30T05:37:42.966Z,62.92
2023-06-30T05:40:13.618Z,63.88
2023-06-30T05:42:46.677Z,63.47
2023-06-30T05:45:16.594Z,63.80
2023-06-30T05:47:46.439Z,63.73
2023-06-30T05:50:16.715Z,62.13
2023-06-30T05:52:46.688Z,61.02
2023-06-30T05:55:17.392Z,60.58
2023-06-30T05:57:47.602Z,59.65
2023-06-30T06:00:18.452Z,60.13
2023-06-30T06:02:48.610Z,59.61
2023-06-30T06:05:19.894Z,59.71
2023-06-30T06:07:51.527Z,60.27
2023-06-30T06:10:21.475Z,61.31
2023-06-30T06:12:56.238Z,62.00
2023-06-30T06:15:26.515Z,62.46
2023-06-30T06:17:57.045Z,62.58
2023-06-30T06:20:30.452Z,63.40
2023-06-30T06:23:02.103Z,63.89
2023-06-30T06:25:32.125Z,64.03
2023-06-30T06:28:02.135Z,64.53
2023-06-30T06:30:32.121Z,65.26
2023-06-30T06:33:02.229Z,64.79
2023-06-30T06:35:32.495Z,63.95
2023-06-30T06:38:03.183Z,62.98
2023-06-30T06:40:34.708Z,63.07
2023-06-30T06:43:05.057Z,63.13
2023-06-30T06:45:36.950Z,62.46
2023-06-30T06:48:26.347Z,63.00
2023-06-30T06:50:57.899Z,63.58
2023-06-30T06:53:32.876Z,63.73
2023-06-30T06:56:04.134Z,62.82
2023-06-30T06:58:37.473Z,61.65
2023-06-30T07:01:08.001Z,62.20
2023-06-30T07:03:39.593Z,62.71
2023-06-30T07:06:12.568Z,62.68
2023-06-30T07:08:43.543Z,61.13
2023-06-30T07:11:14.933Z,60.17
2023-06-30T07:13:47.200Z,59.67
2023-06-30T07:16:20.023Z,59.33
2023-06-30T07:18:50.091Z,59.60
2023-06-30T07:21:21.231Z,60.39
2023-06-30T07:23:54.420Z,60.67
2023-06-30T07:26:24.651Z,60.24
2023-06-30T07:28:54.788Z,60.55
2023-06-30T07:31:24.979Z,60.82
2023-06-30T07:33:55.750Z,59.64
2023-06-30T07:36:25.692Z,59.16
2023-06-30T07:38:55.660Z,58.55
2023-06-30T07:41:26.082Z,58.15
2023-06-30T07:43:56.273Z,57.31
2023-06-30T07:46:26.637Z,57.58
2023-06-30T07:48:59.958Z,57.93
2023-06-30T07:51:31.539Z,57.46
2023-06-30T07:54:01.628Z,56.73
2023-06-30T07:56:31.970Z,56.38
2023-06-30T07:59:04.915Z,56.33
2023-06-30T08:01:35.395Z,55.64
2023-06-30T08:04:06.028Z,55.37
2023-06-30T08:06:36.194Z,55.47
2023-06-30T08:09:06.236Z,55.94
2023-06-30T08:11:37.161Z,56.22
2023-06-30T08:14:08.635Z,56.08
2023-06-30T08:16:38.759Z,56.89
2023-06-30T08:19:21.587Z,56.64
2023-06-30T08:22:00.445Z,57.76
2023-06-30T08:24:30.469Z,57.83
2023-06-30T08:27:00.664Z,57.90
2023-06-30T08:29:30.530Z,58.45
2023-06-30T08:32:00.428Z,58.38
2023-06-30T08:34:30.756Z,58.38
2023-06-30T08:37:00.862Z,58.92
2023-06-30T08:39:33.234Z,58.17
2023-06-30T08:42:03.512Z,58.28
2023-06-30T08:44:34.115Z,57.96
2023-06-30T08:47:05.686Z,58.16
2023-06-30T08:49:35.800Z,59.51
2023-06-30T08:52:06.882Z,59.09
2023-06-30T08:54:41.467Z,58.35
2023-06-30T08:57:17.241Z,58.24
2023-06-30T08:59:48.007Z,57.68
2023-06-30T09:02:18.830Z,57.68
2023-06-30T09:04:49.617Z,58.66
2023-06-30T09:07:29.458Z,59.16
2023-06-30T09:10:05.824Z,59.33
2023-06-30T09:12:43.687Z,60.17
2023-06-30T09:15:13.644Z,60.67
2023-06-30T09:17:44.931Z,60.78
2023-06-30T09:20:15.914Z,61.33
2023-06-30T09:22:54.460Z,60.86
2023-06-30T09:25:29.474Z,61.81
2023-06-30T09:28:00.033Z,61.93
2023-06-30T09:30:37.406Z,62.84
2023-06-30T09:33:08.655Z,63.02
2023-06-30T09:35:43.100Z,62.24
2023-06-30T09:38:20.489Z,61.82
2023-06-30T09:40:52.183Z,62.17
2023-06-30T09:43:24.263Z,62.69
2023-06-30T09:45:58.027Z,62.41
2023-06-30T09:48:34.872Z,62.40
2023-06-30T09:51:05.093Z,62.96
2023-06-30T09:53:42.716Z,63.61
2023-06-30T09:56:24.259Z,63.36
2023-06-30T09:59:01.499Z,63.11
2023-06-30T10:01:33.653Z,63.15
2023-06-30T10:04:04.025Z,62.99
2023-06-30T10:06:36.533Z,62.88
2023-06-30T10:09:08.154Z,63.70
2023-06-30T10:11:38.562Z,63.88
2023-06-30T10:14:08.939Z,64.41
2023-06-30T10:16:39.241Z,64.85
2023-06-30T10:19:10.878Z,65.16
2023-06-30T10:21:40.815Z,64.36
2023-06-30T10:24:14.737Z,64.86
2023-06-30T10:26:46.112Z,64.69
2023-06-30T10:29:19.146Z,64.59
2023-06-30T10:31:50.919Z,64.60
2023-06-30T10:34:23.364Z,64.12
2023-06-30T10:36:55.400Z,63.70
2023-06-30T10:39:25.532Z,63.97
2023-06-30T10:42:02.327Z,64.22
2023-06-30T10:44:47.027Z,64.83
2023-06-30T10:47:24.294Z,65.21
2023-06-30T10:49:57.925Z,65.69
2023-06-30T10:52:33.294Z,65.26
2023-06-30T10:55:10.690Z,65.82
2023-06-30T10:57:42.256Z,65.52
2023-06-30T11:00:14.197Z,65.23
2023-06-30T11:02:53.296Z,65.17
2023-06-30T11:05:45.444Z,65.41
2023-06-30T11:08:24.730Z,65.58
2023-06-30T11:11:04.729Z,64.86
2023-06-30T11:13:42.068Z,65.30
2023-06-30T11:16:12.168Z,65.80
2023-06-30T11:18:42.429Z,66.25
2023-06-30T11:21:12.601Z,66.47
2023-06-30T11:23:45.195Z,66.59
2023-06-30T11:26:18.774Z,66.99
2023-06-30T11:28:53.121Z,67.80
2023-06-30T11:31:23.887Z,68.37
2023-06-30T11:33:56.048Z,68.52
2023-06-30T11:36:26.277Z,68.24
2023-06-30T11:38:56.745Z,68.54
2023-06-30T11:41:26.726Z,68.24
2023-06-30T11:44:00.224Z,69.03
2023-06-30T11:46:38.058Z,69.62
2023-06-30T11:49:11.368Z,69.75
2023-06-30T11:51:41.852Z,70.05
2023-06-30T11:54:11.756Z,70.39
2023-06-30T11:56:45.709Z,70.99
2023-06-30T11:59:15.852Z,71.12
2023-06-30T12:01:46.191Z,71.24
2023-06-30T12:04:16.309Z,71.86
2023-06-30T12:06:51.524Z,72.06
2023-06-30T12:09:22.417Z,71.72
2023-06-30T12:11:52.688Z,71.73
2023-06-30T12:14:28.454Z,71.85
2023-06-30T12:16:59.247Z,72.64
2023-06-30T12:19:29.936Z,71.84
2023-06-30T12:22:05.504Z,71.84
2023-06-30T12:24:36.857Z,72.04
2023-06-30T12:27:11.418Z,72.20
2023-06-30T12:29:48.936Z,71.81
2023-06-30T12:32:21.031Z,72.11
2023-06-30T12:34:51.521Z,72.48
2023-06-30T12:37:22.116Z,72.46
2023-06-30T12:39:52.118Z,72.84
2023-06-30T12:42:23.579Z,72.52
2023-06-30T12:44:54.024Z,72.53
2023-06-30T12:47:24.495Z,72.55
2023-06-30T12:49:58.087Z,72.70
2023-06-30T12:52:28.127Z,72.76
2023-06-30T12:54:58.427Z,72.32
2023-06-30T12:57:28.827Z,72.02
2023-06-30T13:00:00.579Z,72.16
2023-06-30T13:02:31.670Z,72.35
2023-06-30T13:05:02.232Z,72.18
2023-06-30T13:07:36.024Z,72.15
2023-06-30T13:10:15.780Z,72.64
2023-06-30T13:12:45.838Z,72.70
2023-06-30T13:15:19.594Z,72.84
2023-06-30T13:17:50.049Z,72.52
2023-06-30T13:20:22.958Z,73.24
2023-06-30T13:23:09.778Z,73.14
2023-06-30T13:25:40.631Z,73.28
2023-06-30T13:28:10.819Z,73.18
2023-06-30T13:30:40.644Z,73.34
2023-06-30T13:33:11.781Z,73.20
2023-06-30T13:35:41.866Z,73.30
2023-06-30T13:38:13.147Z,73.17
2023-06-30T13:40:43.702Z,72.96
2023-06-30T13:43:14.264Z,73.16
2023-06-30T13:45:44.751Z,73.00
2023-06-30T13:48:15.260Z,73.19
2023-06-30T13:50:46.410Z,74.27
2023-06-30T13:53:16.524Z,74.16
2023-06-30T13:55:49.182Z,74.41
2023-06-30T13:58:19.523Z,74.29
2023-06-30T14:00:51.265Z,74.30
2023-06-30T14:03:21.543Z,75.00
2023-06-30T14:05:54.089Z,75.76
2023-06-30T14:08:24.498Z,76.49
2023-06-30T14:10:57.425Z,76.17
2023-06-30T14:13:29.743Z,76.09
2023-06-30T14:15:59.896Z,76.47
2023-06-30T14:18:29.801Z,76.70
2023-06-30T14:20:59.633Z,77.08
2023-06-30T14:23:30.449Z,77.62
2023-06-30T14:26:00.500Z,77.29
2023-06-30T14:28:30.540Z,77.86
2023-06-30T14:31:00.616Z,77.96
2023-06-30T14:33:30.680Z,77.79
2023-06-30T14:36:01.663Z,77.53
2023-06-30T14:38:33.020Z,77.09
2023-06-30T14:41:04.032Z,76.82
2023-06-30T14:43:37.339Z,76.32
2023-06-30T14:46:07.551Z,76.26
2023-06-30T14:48:37.787Z,75.72
2023-06-30T14:51:07.660Z,75.62
2023-06-30T14:53:38.059Z,74.84
2023-06-30T14:56:08.380Z,74.49
2023-06-30T14:58:38.371Z,74.02
2023-06-30T15:01:09.274Z,73.74
2023-06-30T15:03:39.929Z,74.14
2023-06-30T15:06:10.694Z,74.09
2023-06-30T15:08:41.097Z,74.06
2023-06-30T15:11:11.498Z,74.36
2023-06-30T15:13:41.706Z,73.98
2023-06-30T15:16:11.662Z,74.06
2023-06-30T15:18:41.664Z,74.19
2023-06-30T15:21:11.617Z,73.91
2023-06-30T15:23:41.319Z,73.69
2023-06-30T15:26:11.376Z,73.87
2023-06-30T15:28:47.067Z,73.88
2023-06-30T15:31:17.022Z,74.13
2023-06-30T15:33:47.111Z,74.13
2023-06-30T15:36:17.191Z,73.77
2023-06-30T15:38:47.239Z,73.83
2023-06-30T15:41:23.241Z,73.53
2023-06-30T15:43:55.875Z,73.94
2023-06-30T15:46:25.965Z,72.10
2023-06-30T15:48:56.541Z,70.96
2023-06-30T15:51:26.783Z,71.06
2023-06-30T15:54:00.388Z,70.54
2023-06-30T15:56:30.344Z,70.41
2023-06-30T15:59:01.177Z,70.57
2023-06-30T16:01:31.306Z,71.09
2023-06-30T16:04:01.319Z,71.18
2023-06-30T16:06:32.123Z,71.15
2023-06-30T16:09:02.510Z,70.82
2023-06-30T16:11:32.809Z,70.75
2023-06-30T16:14:02.846Z,70.85
2023-06-30T16:16:32.925Z,70.83
2023-06-30T16:19:02.957Z,70.88
2023-06-30T16:21:34.182Z,71.01
2023-06-30T16:24:04.149Z,71.89
2023-06-30T16:26:34.370Z,71.48
2023-06-30T16:29:04.240Z,71.68
2023-06-30T16:31:34.271Z,71.80
2023-06-30T16:34:07.695Z,72.05
2023-06-30T16:36:41.080Z,72.31
2023-06-30T16:39:11.210Z,71.94
2023-06-30T16:41:41.262Z,72.20
2023-06-30T16:44:12.266Z,72.79
2023-06-30T16:46:42.252Z,74.07
2023-06-30T16:49:12.762Z,74.82
2023-06-30T16:51:44.562Z,75.16
2023-06-30T16:54:14.757Z,75.04
2023-06-30T16:56:44.515Z,74.53
2023-06-30T16:59:14.417Z,74.71
2023-06-30T17:01:44.254Z,74.57
2023-06-30T17:04:16.997Z,74.72
2023-06-30T17:06:47.246Z,74.74
2023-06-30T17:09:18.667Z,74.85
2023-06-30T17:11:49.053Z,75.21
2023-06-30T17:14:18.940Z,75.29
2023-06-30T17:16:48.955Z,75.50
2023-06-30T17:19:19.109Z,75.69
2023-06-30T17:21:53.526Z,76.00
2023-06-30T17:24:27.082Z,75.37
2023-06-30T17:26:57.291Z,76.08
2023-06-30T17:29:27.700Z,76.71
2023-06-30T17:31:57.644Z,76.34
2023-06-30T17:34:27.624Z,76.59
2023-06-30T17:37:08.237Z,76.28
2023-06-30T17:39:38.709Z,76.17
2023-06-30T17:42:09.429Z,76.81
2023-06-30T17:44:39.853Z,76.78
2023-06-30T17:47:11.263Z,76.95
2023-06-30T17:49:42.210Z,77.35
2023-06-30T17:52:12.482Z,77.43
2023-06-30T17:54:42.514Z,78.09
2023-06-30T17:57:12.816Z,77.74
2023-06-30T17:59:42.711Z,77.74
2023-06-30T18:02:13.621Z,77.90
2023-06-30T18:04:43.988Z,78.29
2023-06-30T18:07:14.178Z,78.13
2023-06-30T18:09:45.506Z,78.04
2023-06-30T18:12:15.671Z,78.00
2023-06-30T18:14:47.765Z,78.13
2023-06-30T18:17:18.346Z,78.63
2023-06-30T18:19:48.602Z,78.68
2023-06-30T18:22:20.298Z,79.55
2023-06-30T18:24:51.244Z,79.94
2023-06-30T18:27:21.189Z,80.07
2023-06-30T18:29:51.540Z,80.84
2023-06-30T18:32:21.631Z,80.62
2023-06-30T18:34:51.654Z,80.23
2023-06-30T18:37:22.234Z,79.92
2023-06-30T18:39:52.116Z,79.91
2023-06-30T18:42:21.999Z,79.75
2023-06-30T18:44:53.686Z,79.59
2023-06-30T18:47:23.620Z,79.95
2023-06-30T18:49:53.995Z,79.72
2023-06-30T18:52:24.265Z,80.16
2023-06-30T18:54:54.440Z,80.31
2023-06-30T18:57:26.995Z,80.13
2023-06-30T18:59:57.165Z,80.50
2023-06-30T19:02:32.570Z,80.64
2023-06-30T19:05:02.815Z,80.22
2023-06-30T19:07:34.540Z,80.41
2023-06-30T19:10:04.943Z,80.58
2023-06-30T19:12:34.844Z,80.87
2023-06-30T19:15:05.632Z,79.93
2023-06-30T19:17:38.699Z,79.72
2023-06-30T19:20:08.934Z,79.81
2023-06-30T19:22:39.160Z,80.04
2023-06-30T19:25:14.024Z,80.09
2023-06-30T19:27:43.963Z,79.53
2023-06-30T19:30:14.294Z,79.66
2023-06-30T19:32:47.391Z,80.22
2023-06-30T19:35:17.322Z,80.38
2023-06-30T19:37:47.335Z,80.43
2023-06-30T19:40:17.462Z,81.23
2023-06-30T19:42:47.516Z,81.25
2023-06-30T19:45:18.112Z,81.70
2023-06-30T19:47:48.165Z,80.96
2023-06-30T19:50:18.584Z,80.81
2023-06-30T19:52:51.226Z,81.15
2023-06-30T19:55:24.352Z,80.29
2023-06-30T19:57:56.403Z,80.10
2023-06-30T20:00:26.480Z,79.47
2023-06-30T20:02:59.472Z,79.76
2023-06-30T20:05:29.729Z,79.89
2023-06-30T20:08:00.168Z,79.29
2023-06-30T20:10:32.651Z,79.41
2023-06-30T20:13:04.033Z,79.73
2023-06-30T20:15:37.501Z,79.63
2023-06-30T20:18:07.629Z,80.44
2023-06-30T20:20:37.508Z,80.35
2023-06-30T20:23:07.247Z,80.53
2023-06-30T20:25:37.763Z,80.41
2023-06-30T20:28:08.204Z,80.51
2023-06-30T20:30:38.215Z,80.82
2023-06-30T20:33:08.107Z,80.66
2023-06-30T20:35:38.175Z,80.66
2023-06-30T20:38:08.343Z,81.77
2023-06-30T20:40:38.254Z,81.34
2023-06-30T20:43:08.580Z,81.39
2023-06-30T20:45:39.245Z,81.41
2023-06-30T20:48:11.364Z,81.07
2023-06-30T20:50:43.693Z,81.25
2023-06-30T20:53:14.009Z,81.65
2023-06-30T20:55:44.412Z,81.83
2023-06-30T20:58:14.402Z,81.57
2023-06-30T21:00:45.314Z,81.33
2023-06-30T21:03:15.567Z,81.05
2023-06-30T21:05:45.706Z,80.92
2023-06-30T21:08:15.632Z,80.47
2023-06-30T21:10:45.682Z,80.31
2023-06-30T21:13:15.759Z,80.43
2023-06-30T21:15:45.508Z,80.37
2023-06-30T21:18:15.359Z,80.55
2023-06-30T21:20:45.638Z,80.54
2023-06-30T21:23:15.832Z,79.91
2023-06-30T21:25:46.120Z,80.33
2023-06-30T21:28:17.738Z,80.15
2023-06-30T21:30:47.816Z,80.55
2023-06-30T21:33:18.939Z,80.17
2023-06-30T21:35:49.720Z,79.93
2023-06-30T21:38:20.121Z,80.29
2023-06-30T21:40:50.329Z,79.82
2023-06-30T21:43:20.191Z,80.09
2023-06-30T21:45:50.252Z,80.05
2023-06-30T21:48:20.287Z,80.64
2023-06-30T21:50:50.517Z,80.37
2023-06-30T21:53:21.224Z,80.37
2023-06-30T21:55:53.743Z,80.44
2023-06-30T21:58:27.742Z,80.42
2023-06-30T22:00:58.138Z,80.14
2023-06-30T22:03:29.310Z,80.06
2023-06-30T22:05:59.416Z,80.73
2023-06-30T22:08:30.733Z,80.37
2023-06-30T22:11:00.963Z,80.74
2023-06-30T22:13:30.952Z,80.31
2023-06-30T22:16:01.263Z,80.37
2023-06-30T22:18:33.621Z,80.21
2023-06-30T22:21:05.218Z,80.22
2023-06-30T22:23:35.161Z,80.00
2023-06-30T22:26:05.717Z,79.94
2023-06-30T22:28:35.615Z,80.01
2023-06-30T22:31:05.339Z,79.78
2023-06-30T22:33:35.348Z,79.30
2023-06-30T22:36:06.104Z,79.99
2023-06-30T22:38:36.487Z,79.88
2023-06-30T22:41:06.386Z,79.79
2023-06-30T22:43:36.318Z,80.45
2023-06-30T22:46:08.320Z,80.23
2023-06-30T22:48:38.352Z,79.65
2023-06-30T22:51:08.714Z,79.81
2023-06-30T22:53:41.471Z,80.63
2023-06-30T22:56:12.034Z,80.19
2023-06-30T22:58:44.255Z,80.04
2023-06-30T23:01:14.206Z,80.81
2023-06-30T23:03:44.188Z,80.57
2023-06-30T23:06:14.541Z,80.10
2023-06-30T23:08:44.501Z,80.76
2023-06-30T23:11:15.326Z,80.41
2023-06-30T23:13:45.162Z,79.96
2023-06-30T23:16:18.103Z,81.14
2023-06-30T23:18:49.188Z,81.45
2023-06-30T23:21:20.212Z,81.22
2023-06-30T23:23:50.801Z,80.27
2023-06-30T23:26:26.182Z,81.04
2023-06-30T23:28:59.943Z,82.18
2023-06-30T23:31:35.523Z,82.28
2023-06-30T23:34:05.472Z,81.47
2023-06-30T23:36:37.202Z,81.39
2023-06-30T23:39:07.482Z,81.58
2023-06-30T23:41:37.355Z,81.83
2023-06-30T23:44:07.253Z,81.71
2023-06-30T23:46:37.290Z,81.85
2023-06-30T23:49:07.301Z,81.47
2023-06-30T23:51:39.003Z,81.92
2023-06-30T23:54:12.137Z,81.03
2023-06-30T23:56:42.593Z,81.08
2023-06-30T23:59:21.306Z,80.02
